Time;durP1;ratioP1;P1;durP2;ratioP2;P2;SDS_P1;SDS_P2;PMS_P1;PMS_P2;Temp;Humidity;BMP_temperature;BMP_pressure;BME280_temperature;BME280_humidity;BME280_pressure;Samples;Min_cycle;Max_cycle;Signal;HPM_P1;HPM_P2
2023/10/28 00:01:14;;;;;;;33.05;31.05;;;;;;;18.96;100.00;99847.06;5050524;28;20535;-77
2023/10/28 00:03:41;;;;;;;39.25;36.85;;;;;;;18.82;100.00;99851.47;5066793;28;20044;-77
2023/10/28 00:06:08;;;;;;;35.45;33.35;;;;;;;18.93;100.00;99853.81;5053229;28;20133;-76
2023/10/28 00:08:43;;;;;;;34.65;31.83;;;;;;;18.99;100.00;99847.28;5068826;28;20072;-77
2023/10/28 00:11:10;;;;;;;37.40;35.05;;;;;;;19.20;100.00;99845.22;5066349;28;20059;-82
2023/10/28 00:13:37;;;;;;;33.85;31.60;;;;;;;19.13;100.00;99857.41;5069975;28;20480;-82
2023/10/28 00:16:05;;;;;;;37.75;35.45;;;;;;;19.22;100.00;99853.03;5052785;28;20055;-82
2023/10/28 00:18:33;;;;;;;42.45;40.05;;;;;;;18.72;100.00;99850.44;5058147;28;20094;-82
2023/10/28 00:21:00;;;;;;;49.08;46.08;;;;;;;18.98;100.00;99852.97;5053199;28;20051;-82
2023/10/28 00:23:27;;;;;;;44.63;41.92;;;;;;;19.27;100.00;99846.78;5060549;28;20055;-83
2023/10/28 00:26:01;;;;;;;33.35;31.05;;;;;;;18.79;100.00;99850.19;5061307;28;20067;-82
2023/10/28 00:28:32;;;;;;;37.90;35.40;;;;;;;18.75;100.00;99855.28;5067628;28;20059;-82
2023/10/28 00:31:03;;;;;;;38.20;35.78;;;;;;;18.65;100.00;99855.34;5061521;28;20048;-81
2023/10/28 00:33:34;;;;;;;38.42;35.92;;;;;;;18.84;100.00;99855.50;5052330;28;20128;-82
2023/10/28 00:36:06;;;;;;;35.25;32.95;;;;;;;18.67;100.00;99861.25;5056658;28;20500;-82
2023/10/28 00:38:34;;;;;;;47.17;44.17;;;;;;;18.93;100.00;99855.69;5067100;28;20063;-82
2023/10/28 00:41:01;;;;;;;40.40;37.70;;;;;;;18.73;100.00;99844.03;5057609;28;20497;-82
2023/10/28 00:43:44;;;;;;;38.20;35.60;;;;;;;18.88;100.00;99848.50;5053310;28;20045;-77
2023/10/28 00:46:18;;;;;;;38.90;36.40;;;;;;;18.86;100.00;99833.72;5063911;28;20056;-76
2023/10/28 00:48:46;;;;;;;41.08;38.45;;;;;;;18.69;100.00;99840.25;5053833;28;20435;-76
2023/10/28 00:51:15;;;;;;;43.67;40.88;;;;;;;19.14;100.00;99845.56;5057594;28;20052;-76
2023/10/28 00:53:42;;;;;;;43.60;40.33;;;;;;;19.02;100.00;99842.44;5050916;28;20056;-83
2023/10/28 00:56:12;;;;;;;38.10;35.60;;;;;;;18.82;100.00;99851.47;5060057;28;20345;-82
2023/10/28 00:58:47;;;;;;;41.05;38.35;;;;;;;18.86;100.00;99841.78;5061328;28;20036;-83
2023/10/28 01:01:14;;;;;;;34.80;32.50;;;;;;;18.71;100.00;99840.78;5063906;28;20118;-83
2023/10/28 01:03:41;;;;;;;37.05;34.65;;;;;;;19.10;100.00;99845.34;5062946;28;20056;-83
2023/10/28 01:06:20;;;;;;;36.33;33.53;;;;;;;18.94;100.00;99843.84;5066519;28;20435;-82
2023/10/28 01:08:56;;;;;;;31.33;29.23;;;;;;;18.82;100.00;99848.78;5062110;28;20049;-83
2023/10/28 01:11:23;;;;;;;37.05;34.65;;;;;;;18.73;100.00;99857.47;5059455;28;20049;-81
2023/10/28 01:14:06;;;;;;;35.00;32.70;;;;;;;19.06;100.00;99843.47;5060301;28;20044;-82
2023/10/28 01:16:33;;;;;;;35.60;33.40;;;;;;;18.81;100.00;99850.69;5065206;28;20767;-83
2023/10/28 01:19:00;;;;;;;37.92;35.42;;;;;;;18.79;100.00;99860.13;5054026;28;20045;-82
2023/10/28 01:21:29;;;;;;;32.72;30.52;;;;;;;18.74;100.00;99864.47;5064297;28;20036;-82
2023/10/28 01:23:56;;;;;;;37.40;34.92;;;;;;;18.70;100.00;99868.78;5056673;28;20053;-83
2023/10/28 01:26:23;;;;;;;39.53;36.72;;;;;;;18.80;100.00;99864.44;5062024;28;20048;-82
2023/10/28 01:28:50;;;;;;;29.20;26.80;;;;;;;18.69;100.00;99874.41;5060403;28;20066;-83
2023/10/28 01:31:18;;;;;;;26.85;24.85;;;;;;;18.62;100.00;99860.50;5063116;28;20044;-82
2023/10/28 01:33:45;;;;;;;29.75;27.65;;;;;;;19.06;100.00;99881.94;5058769;28;20044;-76
2023/10/28 01:36:12;;;;;;;38.17;35.60;;;;;;;18.63;100.00;99886.28;5061161;28;20055;-83
2023/10/28 01:38:53;;;;;;;39.90;37.15;;;;;;;19.08;100.00;99887.88;5065041;28;20053;-82
2023/10/28 01:41:20;;;;;;;45.72;42.92;;;;;;;18.68;100.00;99892.44;5069196;28;20047;-76
2023/10/28 01:43:47;;;;;;;36.05;33.65;;;;;;;18.81;100.00;99899.09;5064732;28;20136;-76
2023/10/28 01:46:15;;;;;;;40.50;37.80;;;;;;;18.58;100.00;99899.75;5058997;28;20054;-76
2023/10/28 01:48:46;;;;;;;39.60;37.00;;;;;;;18.72;100.00;99906.13;5066469;28;20051;-76
2023/10/28 01:51:13;;;;;;;34.97;32.67;;;;;;;18.64;100.00;99914.78;5066926;28;20094;-76
2023/10/28 01:53:47;;;;;;;32.83;30.63;;;;;;;18.62;100.00;99915.06;5059865;28;20133;-76
2023/10/28 01:56:16;;;;;;;34.25;31.98;;;;;;;19.06;100.00;99911.56;5058368;28;20052;-76
2023/10/28 01:58:43;;;;;;;37.42;35.22;;;;;;;18.87;100.00;99916.00;5052020;28;20040;-83
2023/10/28 02:01:12;;;;;;;33.80;31.60;;;;;;;18.73;100.00;99918.53;5065096;28;20777;-76
2023/10/28 02:03:38;;;;;;;39.75;37.63;;;;;;;18.62;100.00;99904.31;5062394;28;20049;-76
2023/10/28 02:06:08;;;;;;;41.78;39.47;;;;;;;18.72;100.00;99896.16;5060450;28;20059;-76
2023/10/28 02:08:35;;;;;;;41.92;39.47;;;;;;;18.71;100.00;99907.22;5065035;28;20533;-76
2023/10/28 02:11:02;;;;;;;39.50;37.13;;;;;;;18.74;100.00;99896.72;5066754;28;20515;-76
2023/10/28 02:13:31;;;;;;;41.20;38.83;;;;;;;18.88;100.00;99899.59;5070713;28;20082;-76
2023/10/28 02:15:59;;;;;;;41.97;39.53;;;;;;;18.88;100.00;99913.06;5070674;28;20048;-76
2023/10/28 02:18:32;;;;;;;44.13;41.53;;;;;;;18.87;100.00;99921.41;5063723;28;20102;-76
2023/10/28 02:20:58;;;;;;;;;;;;;;;18.58;100.00;99929.34;5069677;28;20044;-76
2023/10/28 02:23:26;;;;;;;38.38;35.97;;;;;;;18.72;100.00;99944.59;5066486;28;19927;-76
2023/10/28 02:25:53;;;;;;;41.38;38.88;;;;;;;18.85;100.00;99947.75;5067465;28;20490;-76
2023/10/28 02:28:20;;;;;;;45.05;42.55;;;;;;;18.89;100.00;99952.31;5065451;28;21981;-76
2023/10/28 02:30:48;;;;;;;41.13;38.72;;;;;;;18.75;100.00;99954.81;5067235;28;20400;-75
2023/10/28 02:33:15;;;;;;;38.38;35.88;;;;;;;18.59;100.00;99968.63;5062942;28;20135;-76
2023/10/28 02:35:46;;;;;;;42.55;39.95;;;;;;;18.80;100.00;99962.06;5066605;28;20563;-76
2023/10/28 02:38:13;;;;;;;42.20;39.80;;;;;;;18.49;100.00;99970.28;5068082;28;20071;-76
2023/10/28 02:40:46;;;;;;;43.70;41.20;;;;;;;18.77;100.00;99966.13;5069379;28;20056;-82
2023/10/28 02:43:13;;;;;;;47.35;44.55;;;;;;;18.61;100.00;99961.88;5066452;28;20063;-76
2023/10/28 02:45:40;;;;;;;38.70;36.30;;;;;;;18.83;100.00;99976.84;5064749;28;20060;-76
2023/10/28 02:48:08;;;;;;;41.17;38.70;;;;;;;18.80;100.00;99980.91;5059973;28;20557;-77
2023/10/28 02:50:37;;;;;;;44.50;41.90;;;;;;;18.57;100.00;99984.22;5055171;28;20049;-82
2023/10/28 02:53:04;;;;;;;47.60;44.72;;;;;;;18.51;100.00;99986.13;5063252;28;20432;-76
2023/10/28 02:55:35;;;;;;;45.75;42.65;;;;;;;18.51;100.00;99991.50;5066693;28;20062;-77
2023/10/28 02:58:02;;;;;;;63.55;60.05;;;;;;;18.56;100.00;99983.41;5048415;28;20084;-76
2023/10/28 03:00:30;;;;;;;34.40;32.30;;;;;;;18.29;100.00;99989.97;5061653;28;20049;-83
2023/10/28 03:02:57;;;;;;;36.28;34.05;;;;;;;18.29;100.00;99986.47;5062530;28;20494;-83
2023/10/28 03:05:26;;;;;;;34.15;32.00;;;;;;;18.37;100.00;99969.78;5066169;28;20040;-81
2023/10/28 03:07:53;;;;;;;33.67;31.38;;;;;;;18.22;100.00;99969.84;5059863;28;20045;-82
2023/10/28 03:10:26;;;;;;;31.95;29.85;;;;;;;18.53;100.00;99971.31;5069725;28;20059;-83
2023/10/28 03:12:53;;;;;;;30.55;28.55;;;;;;;18.30;100.00;99978.13;5065050;28;20067;-76
2023/10/28 03:15:20;;;;;;;36.33;34.03;;;;;;;18.22;100.00;99981.41;5071421;28;20064;-82
2023/10/28 03:17:47;;;;;;;35.60;33.30;;;;;;;18.62;100.00;99990.38;5054208;28;20532;-76
2023/10/28 03:20:19;;;;;;;32.03;29.92;;;;;;;18.48;100.00;100000.13;5058137;28;20507;-82
2023/10/28 03:22:47;;;;;;;36.88;34.67;;;;;;;18.39;100.00;100004.44;5056481;28;20048;-76
2023/10/28 03:25:14;;;;;;;29.38;26.48;;;;;;;18.40;100.00;100000.69;5066695;28;20044;-76
2023/10/28 03:27:42;;;;;;;31.58;29.58;;;;;;;18.24;100.00;99989.97;5061392;28;20141;-76
2023/10/28 03:30:09;;;;;;;31.95;29.88;;;;;;;18.48;100.00;99986.66;5058030;28;20060;-82
2023/10/28 03:32:36;;;;;;;34.78;32.67;;;;;;;18.27;100.00;100010.13;5067008;28;20045;-76
2023/10/28 03:35:03;;;;;;;34.80;32.60;;;;;;;18.47;100.00;100020.03;5057957;28;20060;-81
2023/10/28 03:37:31;;;;;;;28.85;26.85;;;;;;;18.30;100.00;100012.28;5059196;28;20048;-78
2023/10/28 03:40:00;;;;;;;39.80;37.40;;;;;;;18.76;100.00;100018.31;5051404;28;20064;-81
2023/10/28 03:42:27;;;;;;;37.88;35.38;;;;;;;18.37;100.00;100028.94;5068955;28;20045;-79
2023/10/28 03:44:54;;;;;;;30.38;28.48;;;;;;;18.35;100.00;100024.91;5064972;28;20080;-81
2023/10/28 03:47:21;;;;;;;29.85;27.55;;;;;;;18.91;100.00;100019.28;5059956;28;20057;-80
2023/10/28 03:49:48;;;;;;;28.85;27.00;;;;;;;18.33;100.00;100032.44;5058825;28;20071;-76
2023/10/28 03:52:15;;;;;;;27.65;25.95;;;;;;;18.60;100.00;100030.19;5062335;28;20056;-76
2023/10/28 03:54:59;;;;;;;38.20;36.10;;;;;;;18.40;100.00;100028.38;5063365;28;20059;-80
2023/10/28 03:57:26;;;;;;;29.48;27.50;;;;;;;18.58;100.00;100035.03;5054694;28;20055;-79
2023/10/28 03:59:53;;;;;;;34.03;30.55;;;;;;;18.53;100.00;100029.69;5056497;28;20041;-80
2023/10/28 04:02:19;;;;;;;45.30;41.40;;;;;;;18.19;100.00;100035.72;5062357;28;20051;-75
2023/10/28 04:04:46;;;;;;;51.35;46.95;;;;;;;18.48;100.00;100033.19;5059724;28;20037;-75
2023/10/28 04:07:15;;;;;;;28.80;27.00;;;;;;;18.31;100.00;100028.16;5065295;28;20131;-76
2023/10/28 04:09:43;;;;;;;32.08;30.08;;;;;;;18.57;100.00;100005.72;5059270;28;20074;-76
2023/10/28 04:12:12;;;;;;;31.20;29.30;;;;;;;18.38;100.00;100009.03;5053247;28;20049;-81
2023/10/28 04:14:38;;;;;;;29.67;27.77;;;;;;;18.30;100.00;100012.28;5056199;28;20044;-75
2023/10/28 04:17:05;;;;;;;28.10;26.20;;;;;;;18.09;100.00;100003.47;5060302;28;20115;-76
2023/10/28 04:19:32;;;;;;;28.23;26.05;;;;;;;18.13;100.00;100007.22;5065365;28;20052;-81
2023/10/28 04:22:00;;;;;;;28.65;26.92;;;;;;;18.36;100.00;100016.56;5052782;28;20060;-75
2023/10/28 04:24:51;;;;;;;26.58;24.67;;;;;;;18.22;100.00;100029.78;5069002;28;20146;-76
2023/10/28 04:27:19;;;;;;;30.77;27.48;;;;;;;18.30;100.00;100036.47;5063731;28;20053;-76
2023/10/28 04:29:46;;;;;;;43.60;39.60;;;;;;;18.38;100.00;100051.25;5052648;28;20048;-76
2023/10/28 04:32:17;;;;;;;44.33;40.42;;;;;;;18.40;100.00;100049.09;5059432;28;20474;-76
2023/10/28 04:34:44;;;;;;;41.83;38.13;;;;;;;18.80;100.00;100036.59;5064560;28;20551;-75
2023/10/28 04:37:12;;;;;;;45.33;41.13;;;;;;;18.26;100.00;100043.47;5063163;28;20060;-81
2023/10/28 04:39:40;;;;;;;42.35;38.55;;;;;;;18.51;100.00;100051.44;5059190;28;20475;-80
2023/10/28 04:42:08;;;;;;;37.03;33.63;;;;;;;18.47;100.00;100031.56;5067343;28;20045;-81
2023/10/28 04:44:37;;;;;;;41.10;37.45;;;;;;;18.45;100.00;100031.03;5067519;28;20514;-81
2023/10/28 04:47:04;;;;;;;40.95;37.10;;;;;;;18.25;100.00;100039.19;5049716;28;20045;-81
2023/10/28 04:49:31;;;;;;;37.67;34.47;;;;;;;18.22;100.00;100034.34;5061884;28;20045;-82
2023/10/28 04:51:58;;;;;;;33.70;30.90;;;;;;;18.26;100.00;100032.72;5065693;28;20534;-81
2023/10/28 04:54:25;;;;;;;30.20;27.83;;;;;;;18.52;100.00;100052.28;5062524;28;20075;-81
2023/10/28 04:56:53;;;;;;;24.20;22.45;;;;;;;18.02;100.00;100051.31;5061526;28;20053;-81
2023/10/28 04:59:20;;;;;;;26.92;25.02;;;;;;;18.30;100.00;100058.78;5060440;28;20435;-81
2023/10/28 05:01:49;;;;;;;23.77;22.08;;;;;;;18.31;100.00;100068.47;5061684;28;20500;-80
2023/10/28 05:04:24;;;;;;;23.30;21.70;;;;;;;18.02;100.00;100075.50;5058995;28;20044;-82
2023/10/28 05:06:52;;;;;;;22.15;20.55;;;;;;;19.57;100.00;100070.00;5052328;28;20587;-82
2023/10/28 05:09:21;;;;;;;23.40;21.60;;;;;;;19.02;100.00;100063.09;5069281;28;20052;-82
2023/10/28 05:11:53;;;;;;;22.70;20.90;;;;;;;18.54;100.00;100082.38;5050720;28;20136;-82
2023/10/28 05:14:20;;;;;;;25.58;23.48;;;;;;;19.58;100.00;100093.16;5066806;28;20479;-76
2023/10/28 05:16:56;;;;;;;22.45;20.75;;;;;;;18.81;100.00;100116.19;5067828;28;20736;-77
2023/10/28 05:19:23;;;;;;;22.88;21.17;;;;;;;18.17;100.00;100126.53;5060411;28;20060;-77
2023/10/28 05:21:50;;;;;;;22.48;20.77;;;;;;;17.91;100.00;100131.09;5060480;28;20106;-76
2023/10/28 05:24:17;;;;;;;23.15;21.45;;;;;;;17.90;100.00;100124.13;5062366;28;20056;-77
2023/10/28 05:26:44;;;;;;;22.77;21.08;;;;;;;18.04;100.00;100127.09;5058701;28;20111;-74
2023/10/28 05:29:16;;;;;;;33.17;30.98;;;;;;;18.20;100.00;100131.38;5060783;28;20049;-76
2023/10/28 05:31:49;;;;;;;32.00;29.90;;;;;;;18.01;100.00;100133.81;5052057;28;20045;-73
2023/10/28 05:34:25;;;;;;;22.02;20.33;;;;;;;18.15;100.00;100136.75;5063818;28;20044;-77
2023/10/28 05:36:58;;;;;;;21.70;20.10;;;;;;;18.36;100.00;100148.28;5056490;28;20048;-77
2023/10/28 05:39:25;;;;;;;21.60;20.00;;;;;;;18.46;100.00;100150.16;5064002;28;20048;-77
2023/10/28 05:41:52;;;;;;;20.90;19.40;;;;;;;18.49;100.00;100155.00;5067888;28;20109;-77
2023/10/28 05:44:20;;;;;;;20.60;19.00;;;;;;;18.74;100.00;100144.19;5066985;28;20048;-77
2023/10/28 05:46:47;;;;;;;22.85;21.25;;;;;;;18.37;100.00;100152.59;5058567;28;20053;-77
2023/10/28 05:49:14;;;;;;;22.95;21.35;;;;;;;18.18;100.00;100162.28;5063638;28;20048;-77
2023/10/28 05:51:43;;;;;;;21.60;20.05;;;;;;;18.41;100.00;100163.63;5069370;28;20044;-77
2023/10/28 05:54:11;;;;;;;21.67;20.00;;;;;;;18.75;100.00;100167.31;5068680;28;20082;-77
2023/10/28 05:56:38;;;;;;;22.17;20.58;;;;;;;18.60;100.00;100170.03;5066609;28;20046;-77
2023/10/28 05:59:05;;;;;;;22.73;21.02;;;;;;;18.99;100.00;100169.41;5064218;28;20049;-77
2023/10/28 06:01:33;;;;;;;22.95;21.25;;;;;;;18.75;100.00;100167.31;5069522;28;20051;-78
2023/10/28 06:04:11;;;;;;;22.17;20.58;;;;;;;18.52;100.00;100170.59;5062273;28;20055;-77
2023/10/28 06:06:39;;;;;;;22.27;20.58;;;;;;;18.60;100.00;100179.97;5071603;28;20051;-81
2023/10/28 06:09:09;;;;;;;22.25;20.65;;;;;;;19.02;100.00;100179.63;5062993;28;20106;-74
2023/10/28 06:11:36;;;;;;;23.23;21.52;;;;;;;19.07;100.00;100198.44;5056573;28;20098;-74
2023/10/28 06:14:03;;;;;;;23.60;21.80;;;;;;;19.24;100.00;100200.78;5070551;28;20143;-74
2023/10/28 06:16:30;;;;;;;39.85;22.55;;;;;;;19.37;100.00;100205.59;5068871;28;20049;-74
2023/10/28 06:19:02;;;;;;;23.10;21.30;;;;;;;19.53;100.00;100216.28;5064098;28;20947;-74
2023/10/28 06:21:29;;;;;;;23.90;22.05;;;;;;;19.99;100.00;100216.03;5068921;28;20673;-75
2023/10/28 06:23:56;;;;;;;24.20;22.40;;;;;;;19.46;100.00;100230.06;5065752;28;20500;-73
2023/10/28 06:26:24;;;;;;;24.67;22.88;;;;;;;19.81;100.00;100230.97;5062136;28;20052;-74
2023/10/28 06:28:51;;;;;;;22.83;21.23;;;;;;;19.57;100.00;100236.19;5067098;28;20044;-74
2023/10/28 06:31:20;;;;;;;23.60;21.90;;;;;;;19.70;100.00;100251.78;5069850;28;20045;-74
2023/10/28 06:33:47;;;;;;;21.30;19.73;;;;;;;19.72;100.00;100271.16;5068609;28;20048;-74
2023/10/28 06:36:18;;;;;;;21.88;20.25;;;;;;;19.65;100.00;100270.66;5061796;28;20055;-75
2023/10/28 06:38:45;;;;;;;20.88;19.38;;;;;;;19.65;100.00;100258.00;5067308;28;20063;-75
2023/10/28 06:41:12;;;;;;;22.75;21.05;;;;;;;19.69;100.00;100266.31;5056259;28;20060;-75
2023/10/28 06:43:41;;;;;;;21.90;20.40;;;;;;;19.38;100.00;100263.75;5053999;28;20045;-75
2023/10/28 06:46:09;;;;;;;29.20;21.65;;;;;;;19.48;100.00;100270.16;5052352;28;20062;-74
2023/10/28 06:48:36;;;;;;;22.60;20.90;;;;;;;19.11;100.00;100274.88;5056711;28;20049;-74
2023/10/28 06:51:04;;;;;;;22.15;20.55;;;;;;;19.05;100.00;100267.88;5053058;28;20486;-74
2023/10/28 06:53:31;;;;;;;23.50;21.70;;;;;;;19.92;100.00;100277.53;5061116;28;20064;-74
2023/10/28 06:55:58;;;;;;;23.20;21.42;;;;;;;19.78;100.00;100267.34;5055291;28;20064;-74
2023/10/28 06:58:28;;;;;;;22.63;20.92;;;;;;;19.75;100.00;100276.00;5054430;28;20053;-74
2023/10/28 07:00:59;;;;;;;22.55;20.88;;;;;;;19.74;100.00;100271.69;5062866;28;20048;-74
2023/10/28 07:03:33;;;;;;;23.95;21.90;;;;;;;20.40;100.00;100275.06;5072318;28;20040;-78
2023/10/28 07:06:09;;;;;;;25.58;22.63;;;;;;;20.45;100.00;100265.00;5061650;28;20049;-78
2023/10/28 07:08:36;;;;;;;23.67;21.88;;;;;;;20.61;100.00;100263.03;5063899;28;20439;-78
2023/10/28 07:11:03;;;;;;;24.95;22.95;;;;;;;19.78;100.00;100267.34;5058798;28;20112;-78
2023/10/28 07:13:53;;;;;;;24.73;22.85;;;;;;;20.52;100.00;100270.13;5060865;28;20499;-78
2023/10/28 07:16:35;;;;;;;23.35;21.65;;;;;;;20.27;100.00;100265.69;5054947;28;20082;-78
2023/10/28 07:19:02;;;;;;;22.57;20.97;;;;;;;19.84;100.00;100277.00;5062595;28;20045;-78
2023/10/28 07:21:31;;;;;;;26.20;24.30;;;;;;;20.21;100.00;100281.13;5062024;28;20307;-78
2023/10/28 07:23:57;;;;;;;23.83;21.90;;;;;;;20.42;100.00;100273.66;5054741;28;20052;-77
2023/10/28 07:26:27;;;;;;;24.02;22.33;;;;;;;20.74;100.00;100285.84;5069166;28;20417;-77
2023/10/28 07:28:59;;;;;;;23.35;21.65;;;;;;;20.33;100.00;100291.53;5052458;28;20052;-78
2023/10/28 07:31:38;;;;;;;24.50;22.73;;;;;;;21.09;100.00;100300.91;5053244;28;20177;-78
2023/10/28 07:34:07;;;;;;;23.52;21.83;;;;;;;20.72;100.00;100306.91;5062547;28;20048;-78
2023/10/28 07:36:51;;;;;;;22.58;20.98;;;;;;;20.73;100.00;100317.44;5069835;28;20443;-78
2023/10/28 07:39:19;;;;;;;24.73;23.02;;;;;;;20.28;100.00;100319.34;5062790;28;20494;-78
2023/10/28 07:41:46;;;;;;;24.05;22.35;;;;;;;20.44;100.00;100320.03;5071269;28;20048;-78
2023/10/28 07:44:15;;;;;;;23.73;22.02;;;;;;;19.71;100.00;100318.03;5059807;28;20431;-78
2023/10/28 07:46:43;;;;;;;24.92;23.20;;;;;;;19.58;100.00;100314.03;5067289;28;20513;-77
2023/10/28 07:49:30;;;;;;;22.33;20.73;;;;;;;19.64;100.00;100302.19;5069733;28;20045;-78
2023/10/28 07:52:05;;;;;;;22.85;21.15;;;;;;;20.09;100.00;100316.50;5065706;28;20048;-78
2023/10/28 07:54:43;;;;;;;23.50;21.80;;;;;;;20.10;100.00;100312.72;5063299;28;20051;-77
2023/10/28 07:57:10;;;;;;;22.70;21.00;;;;;;;19.59;100.00;100323.72;5063879;28;20515;-77
2023/10/28 07:59:38;;;;;;;23.73;22.02;;;;;;;19.64;100.00;100326.44;5062960;28;20060;-77
2023/10/28 08:02:20;;;;;;;22.95;21.17;;;;;;;19.98;100.00;100330.31;5065026;28;20098;-78
2023/10/28 08:05:10;;;;;;;25.55;23.65;;;;;;;20.04;100.00;100340.78;5064266;28;20056;-78
2023/10/28 08:07:55;;;;;;;25.42;23.50;;;;;;;20.27;100.00;100323.16;5062449;28;20045;-77
2023/10/28 08:10:32;;;;;;;25.83;23.92;;;;;;;19.68;100.00;100337.47;5067032;28;20059;-78
2023/10/28 08:13:07;;;;;;;25.02;23.13;;;;;;;20.36;100.00;100326.84;5061912;28;20048;-77
2023/10/28 08:15:44;;;;;;;26.50;24.50;;;;;;;20.61;100.00;100338.56;5057605;28;20051;-77
2023/10/28 08:18:15;;;;;;;24.90;23.10;;;;;;;20.70;100.00;100344.19;5058257;28;20053;-78
2023/10/28 08:20:44;;;;;;;23.73;22.02;;;;;;;20.95;100.00;100352.03;5059997;28;20049;-77
2023/10/28 08:23:31;;;;;;;25.83;23.83;;;;;;;21.29;100.00;100345.78;5060733;28;20119;-77
2023/10/28 08:25:58;;;;;;;24.65;22.42;;;;;;;21.27;100.00;100347.94;5066283;28;20052;-78
2023/10/28 08:28:28;;;;;;;23.10;21.40;;;;;;;20.63;100.00;100346.38;5054473;28;20048;-77
2023/10/28 08:31:29;;;;;;;24.60;22.70;;;;;;;20.85;100.00;100362.94;5052306;28;20435;-78
2023/10/28 08:33:58;;;;;;;23.65;21.95;;;;;;;21.06;100.00;100355.47;5064043;28;20094;-78
2023/10/28 08:36:25;;;;;;;24.95;23.15;;;;;;;21.40;100.00;100354.63;5059141;28;20049;-77
2023/10/28 08:38:52;;;;;;;26.17;24.27;;;;;;;21.38;100.00;100359.50;5063554;28;20052;-78
2023/10/28 08:41:36;;;;;;;25.85;24.05;;;;;;;21.71;100.00;100349.66;5066155;28;20055;-78
2023/10/28 08:44:14;;;;;;;24.60;22.70;;;;;;;22.11;100.00;100344.81;5063806;28;20234;-78
2023/10/28 08:46:44;;;;;;;25.73;23.92;;;;;;;21.83;100.00;100354.66;5066257;28;20492;-74
2023/10/28 08:49:26;;;;;;;24.92;23.10;;;;;;;22.86;100.00;100354.78;5060740;28;20139;-74
2023/10/28 08:51:57;;;;;;;26.10;24.20;;;;;;;22.85;100.00;100362.13;5055782;28;20234;-74
2023/10/28 08:54:33;;;;;;;26.17;24.27;;;;;;;24.12;100.00;100357.31;5063228;28;20586;-74
2023/10/28 08:57:03;;;;;;;25.48;23.58;;;;;;;22.32;100.00;100364.28;5066597;28;20056;-74
2023/10/28 08:59:39;;;;;;;23.35;21.55;;;;;;;22.64;100.00;100358.13;5061743;28;20048;-74
2023/10/28 09:02:09;;;;;;;26.70;24.70;;;;;;;23.53;100.00;100349.78;5067810;28;20049;-78
2023/10/28 09:04:38;;;;;;;24.45;22.55;;;;;;;24.85;100.00;100350.69;5057109;28;20053;-78
2023/10/28 09:07:07;;;;;;;25.85;23.95;;;;;;;23.77;100.00;100349.59;5062082;28;20056;-78
2023/10/28 09:09:37;;;;;;;22.75;20.95;;;;;;;24.18;100.00;100351.44;5057059;28;20469;-78
2023/10/28 09:12:07;;;;;;;26.23;24.23;;;;;;;23.68;100.00;100356.00;5050468;28;20543;-78
2023/10/28 09:14:58;;;;;;;25.10;23.20;;;;;;;23.92;100.00;100350.41;5059218;28;20433;-78
2023/10/28 09:17:25;;;;;;;23.33;21.58;;;;;;;24.38;100.00;100343.94;5050635;28;20056;-78
2023/10/28 09:20:29;;;;;;;22.67;20.98;;;;;;;22.71;100.00;100349.63;5058270;28;20052;-78
2023/10/28 09:22:57;;;;;;;21.58;19.88;;;;;;;22.94;100.00;100356.84;5050589;28;20063;-78
2023/10/28 09:25:24;;;;;;;24.15;22.35;;;;;;;23.22;100.00;100360.41;5062459;28;20055;-78
2023/10/28 09:27:56;;;;;;;25.70;23.80;;;;;;;25.42;100.00;100360.09;5069480;28;20508;-78
2023/10/28 09:30:25;;;;;;;22.35;20.55;;;;;;;23.51;100.00;100378.28;5063425;28;20049;-78
2023/10/28 09:32:55;;;;;;;24.40;22.60;;;;;;;24.77;100.00;100373.16;5052263;28;20543;-78
2023/10/28 09:35:23;;;;;;;23.23;21.42;;;;;;;24.32;100.00;100367.66;5056537;28;20045;-78
2023/10/28 09:37:50;;;;;;;26.40;24.45;;;;;;;24.68;100.00;100367.66;5056639;28;20048;-74
2023/10/28 09:40:19;;;;;;;25.10;23.20;;;;;;;24.82;100.00;100366.81;5062418;28;20534;-78
2023/10/28 09:42:50;;;;;;;23.63;21.83;;;;;;;26.07;100.00;100364.78;5052241;28;20056;-78
2023/10/28 09:45:19;;;;;;;25.70;23.70;;;;;;;25.94;100.00;100363.03;5054093;28;20059;-74
2023/10/28 09:47:56;;;;;;;35.83;21.70;;;;;;;27.25;100.00;100363.75;5064523;28;20056;-78
2023/10/28 09:50:25;;;;;;;23.88;22.10;;;;;;;24.91;100.00;100373.09;5062480;28;20049;-74
2023/10/28 09:52:55;;;;;;;21.05;19.35;;;;;;;25.08;100.00;100375.09;5066261;28;20044;-76
2023/10/28 09:55:26;;;;;;;23.30;21.50;;;;;;;26.47;100.00;100380.97;5058754;28;20049;-78
2023/10/28 09:58:17;;;;;;;24.17;22.38;;;;;;;25.49;100.00;100371.34;5065103;28;20048;-74
2023/10/28 10:00:46;;;;;;;21.98;20.17;;;;;;;25.67;100.00;100374.91;5053440;28;20044;-75
2023/10/28 10:03:30;;;;;;;22.55;20.75;;;;;;;25.49;100.00;100361.25;5061381;28;20110;-75
2023/10/28 10:05:57;;;;;;;21.45;19.65;;;;;;;26.39;100.00;100360.00;5056066;28;20057;-73
2023/10/28 10:08:25;;;;;;;24.35;22.52;;;;;;;25.96;100.00;100361.59;5055838;28;20536;-74
2023/10/28 10:10:59;;;;;;;24.55;22.75;;;;;;;25.51;100.00;100361.75;5062065;28;20061;-74
2023/10/28 10:13:26;;;;;;;23.67;21.88;;;;;;;26.99;100.00;100347.44;5064406;28;20059;-74
2023/10/28 10:16:04;;;;;;;23.90;22.20;;;;;;;25.85;100.00;100343.97;5063541;28;20048;-75
2023/10/28 10:18:33;;;;;;;24.15;22.35;;;;;;;25.57;100.00;100337.94;5059124;28;20063;-74
2023/10/28 10:21:07;;;;;;;23.85;22.15;;;;;;;25.30;100.00;100345.22;5051924;28;20056;-74
2023/10/28 10:23:43;;;;;;;23.73;22.02;;;;;;;25.09;100.00;100331.34;5062639;28;20041;-74
2023/10/28 10:26:22;;;;;;;23.40;21.60;;;;;;;25.73;100.00;100335.59;5061887;28;20542;-85
2023/10/28 10:28:49;;;;;;;25.00;22.52;;;;;;;25.86;100.00;100340.09;5067109;28;20055;-74
2023/10/28 10:31:36;;;;;;;23.25;21.55;;;;;;;25.79;100.00;100340.56;5062312;28;20053;-74
2023/10/28 10:34:07;;;;;;;25.45;23.65;;;;;;;25.98;100.00;100345.72;5063577;28;20053;-74
2023/10/28 10:36:40;;;;;;;25.17;23.38;;;;;;;25.85;100.00;100335.81;5062052;28;20435;-74
2023/10/28 10:39:14;;;;;;;25.33;23.52;;;;;;;26.00;100.00;100345.41;5055248;28;20570;-74
2023/10/28 10:41:50;;;;;;;25.65;23.85;;;;;;;26.28;100.00;100346.72;5063787;28;20481;-74
2023/10/28 10:44:26;;;;;;;24.50;22.70;;;;;;;25.62;100.00;100348.66;5053441;28;20536;-74
2023/10/28 10:46:57;;;;;;;24.42;22.73;;;;;;;25.53;100.00;100345.91;5060275;28;20044;-74
2023/10/28 10:49:24;;;;;;;24.58;22.77;;;;;;;25.59;100.00;100341.94;5061446;28;20060;-75
2023/10/28 10:51:52;;;;;;;23.65;21.95;;;;;;;25.09;100.00;100346.84;5057180;28;20059;-74
2023/10/28 10:54:21;;;;;;;22.65;20.95;;;;;;;26.58;100.00;100355.06;5052924;28;20103;-75
2023/10/28 10:56:49;;;;;;;26.58;24.67;;;;;;;25.77;100.00;100347.41;5061108;28;20103;-74
2023/10/28 10:59:16;;;;;;;23.80;22.00;;;;;;;25.76;100.00;100351.28;5056875;28;20045;-74
2023/10/28 11:01:44;;;;;;;23.92;22.13;;;;;;;26.59;100.00;100355.84;5068296;28;20040;-74
2023/10/28 11:04:24;;;;;;;25.10;23.30;;;;;;;25.40;100.00;100355.00;5061194;28;20118;-74
2023/10/28 11:06:52;;;;;;;24.63;22.83;;;;;;;25.45;100.00;100351.34;5064020;28;20045;-74
2023/10/28 11:09:20;;;;;;;24.42;22.63;;;;;;;25.65;100.00;100348.03;5070960;28;20056;-74
2023/10/28 11:11:47;;;;;;;23.50;21.70;;;;;;;25.19;100.00;100345.78;5057670;28;20103;-78
2023/10/28 11:14:15;;;;;;;23.13;21.35;;;;;;;27.01;100.00;100339.75;5056243;28;20538;-78
2023/10/28 11:16:43;;;;;;;24.20;22.40;;;;;;;26.21;100.00;100348.31;5055732;28;20064;-78
2023/10/28 11:19:11;;;;;;;23.92;22.13;;;;;;;26.40;100.00;100348.78;5064282;28;20049;-78